No particular awareness of the weather is required.    There are no Weather-warnings


Meteo18 Weather Cam more information Meteo18 Weather Cam


Thunder radar more information blitzortung!


Rain radar more information rain snow radar


Visit our other weather sites:

Template documentation
and downloads

And another site



Weather Underground History page Text

Daily Summary for March 8, 2018 Units:  Both    English   Metric
« Previous Day
Next Day »
Daily Weekly Monthly Yearly Custom
  High: Low: Average:
Temperature: TemperatureC °F /  -17.8 °C 1.7 °F /  -16.8 °C 7.1 °F /  -13.8 °C
Dew Point: DewpointC °F /  -17.8 °C 0.8 °F /  -17.3 °C 2.5 °F /  -16.4 °C
Humidity: Humidity % 48 % 75 %
Wind Speed: WindSpeedKMH mph /  0 km/h - 6.9 mph /  11.1 km/h
Wind Gust: WindSpeedGustKMH mph /  0 km/h - -
Wind:- - SW
Pressure: PressurehPa in /  0 hPa 1004.6 in /  34015.8 hPa -
Precipitation: 0.0 in /  0 mm    
Historical Graphs
 
 
Tabular Data for March 8, 2018
Time Temperature Dew Point Pressure Wind Wind Speed Wind Gust Humidity Rainfall Rate (Hourly)
TemperatureC °F /  -17.8 °C DewpointC °F /  -17.8 °C PressurehPa in /  0 hPa Calm     Humidity % HourlyPrecipMM in /  0 mm
00:01 4.0 °F /  -15.6 °C 2.2 °F /  -16.6 °C 1007.0 in /  34097 hPa SSE 4.7 mph /  7.6 km/h 8.0 mph /  12.9 km/h 88 % 0.0 in /  0 mm
00:07 3.8 °F /  -15.7 °C 2.0 °F /  -16.7 °C 1007.0 in /  34097 hPa South 4.7 mph /  7.6 km/h 8.0 mph /  12.9 km/h 88 % 0.0 in /  0 mm
00:13 3.7 °F /  -15.7 °C 2.1 °F /  -16.6 °C 1007.0 in /  34097 hPa SSW 3.2 mph /  5.1 km/h 8.0 mph /  12.9 km/h 89 % 0.0 in /  0 mm
00:19 3.6 °F /  -15.8 °C 2.0 °F /  -16.7 °C 1007.3 in /  34107.2 hPa SSW 4.7 mph /  7.6 km/h 6.4 mph /  10.3 km/h 89 % 0.0 in /  0 mm
00:25 3.6 °F /  -15.8 °C 2.1 °F /  -16.6 °C 1007.3 in /  34107.2 hPa SW 4.7 mph /  7.6 km/h 8.0 mph /  12.9 km/h 90 % 0.0 in /  0 mm
00:31 3.7 °F /  -15.7 °C 2.2 °F /  -16.6 °C 1007.3 in /  34107.2 hPa SW 7.9 mph /  12.7 km/h 8.0 mph /  12.9 km/h 90 % 0.0 in /  0 mm
00:37 3.6 °F /  -15.8 °C 2.0 °F /  -16.7 °C 1007.3 in /  34107.2 hPa SW 3.2 mph /  5.1 km/h 6.4 mph /  10.3 km/h 89 % 0.0 in /  0 mm
00:43 3.5 °F /  -15.8 °C 2.2 °F /  -16.6 °C 1007.3 in /  34107.2 hPa SW 3.2 mph /  5.1 km/h 9.7 mph /  15.6 km/h 91 % 0.0 in /  0 mm
00:49 3.7 °F /  -15.7 °C 2.4 °F /  -16.4 °C 1007.0 in /  34097 hPa SW 4.7 mph /  7.6 km/h 9.7 mph /  15.6 km/h 91 % 0.0 in /  0 mm
00:55 3.6 °F /  -15.8 °C 2.1 °F /  -16.6 °C 1007.3 in /  34107.2 hPa SSW 4.7 mph /  7.6 km/h 6.4 mph /  10.3 km/h 90 % 0.0 in /  0 mm
01:01 3.4 °F /  -15.9 °C 2.1 °F /  -16.6 °C 1007.3 in /  34107.2 hPa SW 3.2 mph /  5.1 km/h 9.7 mph /  15.6 km/h 91 % 0.0 in /  0 mm
01:07 3.3 °F /  -15.9 °C 2.0 °F /  -16.7 °C 1007.3 in /  34107.2 hPa SW 4.7 mph /  7.6 km/h 6.4 mph /  10.3 km/h 91 % 0.0 in /  0 mm
01:13 3.1 °F /  -16.1 °C 1.8 °F /  -16.8 °C 1007.3 in /  34107.2 hPa South 4.7 mph /  7.6 km/h 4.8 mph /  7.7 km/h 91 % 0.0 in /  0 mm
01:19 2.9 °F /  -16.2 °C 1.7 °F /  -16.8 °C 1007.3 in /  34107.2 hPa SSW 3.2 mph /  5.1 km/h 6.4 mph /  10.3 km/h 92 % 0.0 in /  0 mm
01:25 2.9 °F /  -16.2 °C 1.7 °F /  -16.8 °C 1007.3 in /  34107.2 hPa SW 4.7 mph /  7.6 km/h 8.0 mph /  12.9 km/h 92 % 0.0 in /  0 mm
01:31 2.8 °F /  -16.2 °C 1.6 °F /  -16.9 °C 1007.3 in /  34107.2 hPa South 1.4 mph /  2.3 km/h 4.8 mph /  7.7 km/h 92 % 0.0 in /  0 mm
01:37 2.8 °F /  -16.2 °C 1.8 °F /  -16.8 °C 1007.0 in /  34097 hPa SSW 1.4 mph /  2.3 km/h 6.4 mph /  10.3 km/h 93 % 0.0 in /  0 mm
01:43 2.7 °F /  -16.3 °C 1.5 °F /  -16.9 °C 1007.3 in /  34107.2 hPa Calm   3.2 mph /  5.1 km/h 92 % 0.0 in /  0 mm
01:49 2.6 °F /  -16.3 °C 1.6 °F /  -16.9 °C 1007.0 in /  34097 hPa SE 1.4 mph /  2.3 km/h 3.2 mph /  5.1 km/h 93 % 0.0 in /  0 mm
01:55 2.4 °F /  -16.4 °C 1.4 °F /  -17 °C 1007.0 in /  34097 hPa Calm   1.6 mph /  2.6 km/h 93 % 0.0 in /  0 mm
02:02 2.3 °F /  -16.5 °C 1.3 °F /  -17.1 °C 1007.0 in /  34097 hPa Calm   1.6 mph /  2.6 km/h 93 % 0.0 in /  0 mm
02:08 2.2 °F /  -16.6 °C 1.2 °F /  -17.1 °C 1007.0 in /  34097 hPa Calm   1.6 mph /  2.6 km/h 93 % 0.0 in /  0 mm
02:14 2.1 °F /  -16.6 °C 1.1 °F /  -17.2 °C 1007.0 in /  34097 hPa SSE 1.4 mph /  2.3 km/h 1.6 mph /  2.6 km/h 93 % 0.0 in /  0 mm
02:20 2.0 °F /  -16.7 °C 1.1 °F /  -17.2 °C 1007.0 in /  34097 hPa South 3.2 mph /  5.1 km/h 4.8 mph /  7.7 km/h 94 % 0.0 in /  0 mm
02:25 2.0 °F /  -16.7 °C 1.1 °F /  -17.2 °C 1006.7 in /  34086.9 hPa ESE 1.4 mph /  2.3 km/h 1.6 mph /  2.6 km/h 94 % 0.0 in /  0 mm
02:32 2.0 °F /  -16.7 °C 1.1 °F /  -17.2 °C 1006.7 in /  34086.9 hPa SSE 1.4 mph /  2.3 km/h 3.2 mph /  5.1 km/h 94 % 0.0 in /  0 mm
02:38 2.0 °F /  -16.7 °C 1.1 °F /  -17.2 °C 1006.7 in /  34086.9 hPa SSW 3.2 mph /  5.1 km/h 6.4 mph /  10.3 km/h 94 % 0.0 in /  0 mm
02:44 2.2 °F /  -16.6 °C 1.5 °F /  -16.9 °C 1006.3 in /  34073.3 hPa SSW 6.4 mph /  10.3 km/h 8.0 mph /  12.9 km/h 95 % 0.0 in /  0 mm
02:50 2.4 °F /  -16.4 °C 1.7 °F /  -16.8 °C 1006.3 in /  34073.3 hPa SW 4.7 mph /  7.6 km/h 9.7 mph /  15.6 km/h 95 % 0.0 in /  0 mm
02:56 2.8 °F /  -16.2 °C 2.1 °F /  -16.6 °C 1006.3 in /  34073.3 hPa SW 13.0 mph /  20.9 km/h 13.0 mph /  20.9 km/h 95 % 0.0 in /  0 mm
03:02 3.2 °F /  -16 °C 2.3 °F /  -16.5 °C 1006.3 in /  34073.3 hPa SW 4.7 mph /  7.6 km/h 14.5 mph /  23.3 km/h 94 % 0.0 in /  0 mm
03:08 3.4 °F /  -15.9 °C 2.4 °F /  -16.4 °C 1006.3 in /  34073.3 hPa SW 11.1 mph /  17.9 km/h 14.5 mph /  23.3 km/h 93 % 0.0 in /  0 mm
03:13 3.5 °F /  -15.8 °C 2.3 °F /  -16.5 °C 1006.3 in /  34073.3 hPa SW 9.7 mph /  15.6 km/h 14.5 mph /  23.3 km/h 92 % 0.0 in /  0 mm
03:19 3.4 °F /  -15.9 °C 2.1 °F /  -16.6 °C 1006.3 in /  34073.3 hPa SW 7.9 mph /  12.7 km/h 11.3 mph /  18.2 km/h 91 % 0.0 in /  0 mm
03:26 3.0 °F /  -16.1 °C 1.7 °F /  -16.8 °C 1006.3 in /  34073.3 hPa SSW 6.4 mph /  10.3 km/h 8.0 mph /  12.9 km/h 91 % 0.0 in /  0 mm
03:32 2.7 °F /  -16.3 °C 1.5 °F /  -16.9 °C 1006.3 in /  34073.3 hPa SSW 4.7 mph /  7.6 km/h 8.0 mph /  12.9 km/h 92 % 0.0 in /  0 mm
03:37 2.4 °F /  -16.4 °C 1.2 °F /  -17.1 °C 1006.3 in /  34073.3 hPa SW 6.4 mph /  10.3 km/h 8.0 mph /  12.9 km/h 92 % 0.0 in /  0 mm
03:44 2.6 °F /  -16.3 °C 1.6 °F /  -16.9 °C 1006.3 in /  34073.3 hPa SW 9.7 mph /  15.6 km/h 9.7 mph /  15.6 km/h 93 % 0.0 in /  0 mm
03:49 2.7 °F /  -16.3 °C 1.7 °F /  -16.8 °C 1006.3 in /  34073.3 hPa SW 9.7 mph /  15.6 km/h 9.7 mph /  15.6 km/h 93 % 0.0 in /  0 mm
03:56 2.7 °F /  -16.3 °C 1.7 °F /  -16.8 °C 1006.3 in /  34073.3 hPa SSW 6.4 mph /  10.3 km/h 8.0 mph /  12.9 km/h 93 % 0.0 in /  0 mm
04:02 2.7 °F /  -16.3 °C 1.7 °F /  -16.8 °C 1006.3 in /  34073.3 hPa SSW 7.9 mph /  12.7 km/h 8.0 mph /  12.9 km/h 93 % 0.0 in /  0 mm
04:08 2.6 °F /  -16.3 °C 1.6 °F /  -16.9 °C 1006.3 in /  34073.3 hPa SSW 6.4 mph /  10.3 km/h 8.0 mph /  12.9 km/h 93 % 0.0 in /  0 mm
04:14 2.7 °F /  -16.3 °C 1.8 °F /  -16.8 °C 1006.3 in /  34073.3 hPa SW 9.7 mph /  15.6 km/h 11.3 mph /  18.2 km/h 94 % 0.0 in /  0 mm
04:20 2.8 °F /  -16.2 °C 1.8 °F /  -16.8 °C 1006.3 in /  34073.3 hPa SSW 7.9 mph /  12.7 km/h 11.3 mph /  18.2 km/h 93 % 0.0 in /  0 mm
04:26 2.7 °F /  -16.3 °C 1.7 °F /  -16.8 °C 1006.3 in /  34073.3 hPa SSW 6.4 mph /  10.3 km/h 9.7 mph /  15.6 km/h 93 % 0.0 in /  0 mm
04:32 2.7 °F /  -16.3 °C 1.7 °F /  -16.8 °C 1006.3 in /  34073.3 hPa SW 6.4 mph /  10.3 km/h 8.0 mph /  12.9 km/h 93 % 0.0 in /  0 mm
04:38 2.7 °F /  -16.3 °C 1.7 °F /  -16.8 °C 1006.3 in /  34073.3 hPa SSW 6.4 mph /  10.3 km/h 8.0 mph /  12.9 km/h 93 % 0.0 in /  0 mm
04:44 2.8 °F /  -16.2 °C 1.9 °F /  -16.7 °C 1006.3 in /  34073.3 hPa SSW 6.4 mph /  10.3 km/h 11.3 mph /  18.2 km/h 94 % 0.0 in /  0 mm
04:50 2.8 °F /  -16.2 °C 1.8 °F /  -16.8 °C 1006.3 in /  34073.3 hPa SSW 4.7 mph /  7.6 km/h 8.0 mph /  12.9 km/h 93 % 0.0 in /  0 mm
04:56 2.7 °F /  -16.3 °C 1.7 °F /  -16.8 °C 1006.3 in /  34073.3 hPa SSW 7.9 mph /  12.7 km/h 11.3 mph /  18.2 km/h 93 % 0.0 in /  0 mm
05:02 2.7 °F /  -16.3 °C 1.7 °F /  -16.8 °C 1006.3 in /  34073.3 hPa SSW 7.9 mph /  12.7 km/h 8.0 mph /  12.9 km/h 93 % 0.0 in /  0 mm
05:08 2.7 °F /  -16.3 °C 1.7 °F /  -16.8 °C 1006.3 in /  34073.3 hPa SSW 4.7 mph /  7.6 km/h 6.4 mph /  10.3 km/h 93 % 0.0 in /  0 mm
05:14 2.7 °F /  -16.3 °C 1.7 °F /  -16.8 °C 1006.3 in /  34073.3 hPa SSW 4.7 mph /  7.6 km/h 8.0 mph /  12.9 km/h 93 % 0.0 in /  0 mm
05:20 2.6 °F /  -16.3 °C 1.6 °F /  -16.9 °C 1006.3 in /  34073.3 hPa SSW 6.4 mph /  10.3 km/h 8.0 mph /  12.9 km/h 93 % 0.0 in /  0 mm
05:26 2.4 °F /  -16.4 °C 1.4 °F /  -17 °C 1006.0 in /  34063.2 hPa SSW 4.7 mph /  7.6 km/h 6.4 mph /  10.3 km/h 93 % 0.0 in /  0 mm
05:32 2.3 °F /  -16.5 °C 1.3 °F /  -17.1 °C 1006.3 in /  34073.3 hPa SSW 3.2 mph /  5.1 km/h 6.4 mph /  10.3 km/h 93 % 0.0 in /  0 mm
05:38 2.2 °F /  -16.6 °C 1.2 °F /  -17.1 °C 1006.3 in /  34073.3 hPa SSW 6.4 mph /  10.3 km/h 6.4 mph /  10.3 km/h 93 % 0.0 in /  0 mm
05:44 2.2 °F /  -16.6 °C 1.3 °F /  -17.1 °C 1006.3 in /  34073.3 hPa SSW 4.7 mph /  7.6 km/h 6.4 mph /  10.3 km/h 94 % 0.0 in /  0 mm
05:50 2.3 °F /  -16.5 °C 1.4 °F /  -17 °C 1006.3 in /  34073.3 hPa SSW 6.4 mph /  10.3 km/h 8.0 mph /  12.9 km/h 94 % 0.0 in /  0 mm
05:56 2.2 °F /  -16.6 °C 1.2 °F /  -17.1 °C 1006.0 in /  34063.2 hPa SSW 3.2 mph /  5.1 km/h 6.4 mph /  10.3 km/h 93 % 0.0 in /  0 mm
06:02 2.1 °F /  -16.6 °C 1.1 °F /  -17.2 °C 1006.0 in /  34063.2 hPa SSW 1.4 mph /  2.3 km/h 4.8 mph /  7.7 km/h 93 % 0.0 in /  0 mm
06:08 2.0 °F /  -16.7 °C 1.0 °F /  -17.2 °C 1006.0 in /  34063.2 hPa SSW 1.4 mph /  2.3 km/h 1.6 mph /  2.6 km/h 93 % 0.0 in /  0 mm
06:14 1.9 °F /  -16.7 °C 1.0 °F /  -17.2 °C 1006.0 in /  34063.2 hPa Calm   3.2 mph /  5.1 km/h 94 % 0.0 in /  0 mm
06:20 1.9 °F /  -16.7 °C 1.0 °F /  -17.2 °C 1006.3 in /  34073.3 hPa SSW 1.4 mph /  2.3 km/h 1.6 mph /  2.6 km/h 94 % 0.0 in /  0 mm
06:26 2.0 °F /  -16.7 °C 1.1 °F /  -17.2 °C 1006.3 in /  34073.3 hPa SSW 1.4 mph /  2.3 km/h 3.2 mph /  5.1 km/h 94 % 0.0 in /  0 mm
06:32 2.1 °F /  -16.6 °C 1.4 °F /  -17 °C 1006.3 in /  34073.3 hPa SSW 1.4 mph /  2.3 km/h 3.2 mph /  5.1 km/h 95 % 0.0 in /  0 mm
06:38 2.2 °F /  -16.6 °C 1.5 °F /  -16.9 °C 1006.3 in /  34073.3 hPa SSW 3.2 mph /  5.1 km/h 3.2 mph /  5.1 km/h 95 % 0.0 in /  0 mm
06:44 2.1 °F /  -16.6 °C 1.2 °F /  -17.1 °C 1006.3 in /  34073.3 hPa SW 3.2 mph /  5.1 km/h 6.4 mph /  10.3 km/h 94 % 0.0 in /  0 mm
06:50 2.1 °F /  -16.6 °C 1.2 °F /  -17.1 °C 1006.3 in /  34073.3 hPa SSW 4.7 mph /  7.6 km/h 4.8 mph /  7.7 km/h 94 % 0.0 in /  0 mm
06:56 1.9 °F /  -16.7 °C 1.0 °F /  -17.2 °C 1006.3 in /  34073.3 hPa SSW 1.4 mph /  2.3 km/h 3.2 mph /  5.1 km/h 94 % 0.0 in /  0 mm
07:02 1.8 °F /  -16.8 °C 0.9 °F /  -17.3 °C 1006.3 in /  34073.3 hPa Calm   1.6 mph /  2.6 km/h 94 % 0.0 in /  0 mm
07:08 1.7 °F /  -16.8 °C 0.8 °F /  -17.3 °C 1006.3 in /  34073.3 hPa Calm     94 % 0.0 in /  0 mm
07:14 1.8 °F /  -16.8 °C 0.9 °F /  -17.3 °C 1006.3 in /  34073.3 hPa Calm   1.6 mph /  2.6 km/h 94 % 0.0 in /  0 mm
07:20 1.9 °F /  -16.7 °C 1.0 °F /  -17.2 °C 1006.3 in /  34073.3 hPa Calm     94 % 0.0 in /  0 mm
07:26 1.9 °F /  -16.7 °C 1.0 °F /  -17.2 °C 1006.3 in /  34073.3 hPa Calm   1.6 mph /  2.6 km/h 94 % 0.0 in /  0 mm
07:32 1.9 °F /  -16.7 °C 1.0 °F /  -17.2 °C 1006.3 in /  34073.3 hPa SSW 1.4 mph /  2.3 km/h 4.8 mph /  7.7 km/h 94 % 0.0 in /  0 mm
07:38 2.0 °F /  -16.7 °C 1.1 °F /  -17.2 °C 1006.3 in /  34073.3 hPa SSW 1.4 mph /  2.3 km/h 3.2 mph /  5.1 km/h 94 % 0.0 in /  0 mm
07:44 2.0 °F /  -16.7 °C 1.0 °F /  -17.2 °C 1006.3 in /  34073.3 hPa Calm   1.6 mph /  2.6 km/h 93 % 0.0 in /  0 mm
07:50 2.3 °F /  -16.5 °C 1.3 °F /  -17.1 °C 1006.3 in /  34073.3 hPa Calm   1.6 mph /  2.6 km/h 93 % 0.0 in /  0 mm
07:56 2.4 °F /  -16.4 °C 1.2 °F /  -17.1 °C 1006.3 in /  34073.3 hPa SSW 1.4 mph /  2.3 km/h 1.6 mph /  2.6 km/h 92 % 0.0 in /  0 mm
08:02 2.6 °F /  -16.3 °C 1.4 °F /  -17 °C 1006.3 in /  34073.3 hPa SSE 1.4 mph /  2.3 km/h 1.6 mph /  2.6 km/h 92 % 0.0 in /  0 mm
08:08 2.4 °F /  -16.4 °C 1.1 °F /  -17.2 °C 1006.3 in /  34073.3 hPa SSW 1.4 mph /  2.3 km/h 3.2 mph /  5.1 km/h 91 % 0.0 in /  0 mm
08:14 2.5 °F /  -16.4 °C 1.3 °F /  -17.1 °C 1006.3 in /  34073.3 hPa SSW 1.4 mph /  2.3 km/h 3.2 mph /  5.1 km/h 92 % 0.0 in /  0 mm
08:20 2.6 °F /  -16.3 °C 1.4 °F /  -17 °C 1006.3 in /  34073.3 hPa SSW 1.4 mph /  2.3 km/h 3.2 mph /  5.1 km/h 92 % 0.0 in /  0 mm
08:26 2.9 °F /  -16.2 °C 1.7 °F /  -16.8 °C 1006.3 in /  34073.3 hPa Calm   3.2 mph /  5.1 km/h 92 % 0.0 in /  0 mm
08:32 3.2 °F /  -16 °C 1.9 °F /  -16.7 °C 1006.3 in /  34073.3 hPa SSW 6.4 mph /  10.3 km/h 8.0 mph /  12.9 km/h 91 % 0.0 in /  0 mm
08:38 3.4 °F /  -15.9 °C 2.1 °F /  -16.6 °C 1006.3 in /  34073.3 hPa SSE 4.7 mph /  7.6 km/h 8.0 mph /  12.9 km/h 91 % 0.0 in /  0 mm
08:44 3.8 °F /  -15.7 °C 2.5 °F /  -16.4 °C 1006.3 in /  34073.3 hPa South 1.4 mph /  2.3 km/h 9.7 mph /  15.6 km/h 91 % 0.0 in /  0 mm
08:50 4.0 °F /  -15.6 °C 2.5 °F /  -16.4 °C 1006.3 in /  34073.3 hPa SSW 7.9 mph /  12.7 km/h 8.0 mph /  12.9 km/h 90 % 0.0 in /  0 mm
08:56 4.1 °F /  -15.5 °C 2.6 °F /  -16.3 °C 1006.3 in /  34073.3 hPa South 4.7 mph /  7.6 km/h 9.7 mph /  15.6 km/h 90 % 0.0 in /  0 mm
09:02 4.1 °F /  -15.5 °C 2.6 °F /  -16.3 °C 1006.3 in /  34073.3 hPa South 1.4 mph /  2.3 km/h 6.4 mph /  10.3 km/h 90 % 0.0 in /  0 mm
09:08 4.3 °F /  -15.4 °C 2.8 °F /  -16.2 °C 1006.3 in /  34073.3 hPa South 1.4 mph /  2.3 km/h 6.4 mph /  10.3 km/h 90 % 0.0 in /  0 mm
09:14 4.4 °F /  -15.3 °C 2.7 °F /  -16.3 °C 1006.3 in /  34073.3 hPa SE 3.2 mph /  5.1 km/h 4.8 mph /  7.7 km/h 89 % 0.0 in /  0 mm
09:20 4.8 °F /  -15.1 °C 3.1 °F /  -16.1 °C 1006.3 in /  34073.3 hPa SSE 3.2 mph /  5.1 km/h 8.0 mph /  12.9 km/h 89 % 0.0 in /  0 mm
09:26 5.1 °F /  -14.9 °C 3.1 °F /  -16.1 °C 1006.3 in /  34073.3 hPa SSW 6.4 mph /  10.3 km/h 11.3 mph /  18.2 km/h 87 % 0.0 in /  0 mm
09:32 5.3 °F /  -14.8 °C 3.3 °F /  -15.9 °C 1006.3 in /  34073.3 hPa South 4.7 mph /  7.6 km/h 11.3 mph /  18.2 km/h 87 % 0.0 in /  0 mm
09:38 5.4 °F /  -14.8 °C 3.2 °F /  -16 °C 1006.3 in /  34073.3 hPa SSW 6.4 mph /  10.3 km/h 11.3 mph /  18.2 km/h 86 % 0.0 in /  0 mm
09:44 5.6 °F /  -14.7 °C 3.3 °F /  -15.9 °C 1006.3 in /  34073.3 hPa South 6.4 mph /  10.3 km/h 11.3 mph /  18.2 km/h 85 % 0.0 in /  0 mm
09:50 5.9 °F /  -14.5 °C 3.6 °F /  -15.8 °C 1006.3 in /  34073.3 hPa SSW 11.1 mph /  17.9 km/h 12.9 mph /  20.8 km/h 85 % 0.0 in /  0 mm
09:56 6.2 °F /  -14.3 °C 3.5 °F /  -15.8 °C 1006.3 in /  34073.3 hPa SSW 7.9 mph /  12.7 km/h 12.9 mph /  20.8 km/h 83 % 0.0 in /  0 mm
10:02 6.3 °F /  -14.3 °C 3.6 °F /  -15.8 °C 1006.3 in /  34073.3 hPa SSW 6.4 mph /  10.3 km/h 12.9 mph /  20.8 km/h 83 % 0.0 in /  0 mm
10:08 6.5 °F /  -14.2 °C 3.6 °F /  -15.8 °C 1006.3 in /  34073.3 hPa SW 11.1 mph /  17.9 km/h 12.9 mph /  20.8 km/h 82 % 0.0 in /  0 mm
10:14 6.7 °F /  -14.1 °C 3.8 °F /  -15.7 °C 1006.0 in /  34063.2 hPa SSW 9.7 mph /  15.6 km/h 12.9 mph /  20.8 km/h 82 % 0.0 in /  0 mm
10:20 7.1 °F /  -13.8 °C 4.2 °F /  -15.4 °C 1006.0 in /  34063.2 hPa SW 13.0 mph /  20.9 km/h 13.0 mph /  20.9 km/h 82 % 0.0 in /  0 mm
10:26 7.8 °F /  -13.4 °C 4.2 °F /  -15.4 °C 1006.0 in /  34063.2 hPa SSW 17.7 mph /  28.5 km/h 17.7 mph /  28.5 km/h 78 % 0.0 in /  0 mm
10:32 8.1 °F /  -13.3 °C 4.1 °F /  -15.5 °C 1006.0 in /  34063.2 hPa SW 20.9 mph /  33.6 km/h 22.5 mph /  36.2 km/h 76 % 0.0 in /  0 mm
10:38 8.2 °F /  -13.2 °C 3.8 °F /  -15.7 °C 1006.0 in /  34063.2 hPa SSW 16.3 mph /  26.2 km/h 24.1 mph /  38.8 km/h 74 % 0.0 in /  0 mm
10:44 8.3 °F /  -13.2 °C 3.9 °F /  -15.6 °C 1006.0 in /  34063.2 hPa SSW 17.7 mph /  28.5 km/h 20.9 mph /  33.6 km/h 74 % 0.0 in /  0 mm
10:51 8.4 °F /  -13.1 °C 3.8 °F /  -15.7 °C 1006.0 in /  34063.2 hPa SSW 20.9 mph /  33.6 km/h 24.1 mph /  38.8 km/h 73 % 0.0 in /  0 mm
10:57 8.6 °F /  -13 °C 4.2 °F /  -15.4 °C 1006.0 in /  34063.2 hPa SW 14.3 mph /  23 km/h 17.7 mph /  28.5 km/h 74 % 0.0 in /  0 mm
11:03 8.9 °F /  -12.8 °C 4.3 °F /  -15.4 °C 1006.0 in /  34063.2 hPa SSW 14.3 mph /  23 km/h 20.9 mph /  33.6 km/h 73 % 0.0 in /  0 mm
11:09 9.1 °F /  -12.7 °C 3.9 °F /  -15.6 °C 1006.0 in /  34063.2 hPa South 16.3 mph /  26.2 km/h 22.5 mph /  36.2 km/h 70 % 0.0 in /  0 mm
11:15 9.2 °F /  -12.7 °C 4.0 °F /  -15.6 °C 1006.0 in /  34063.2 hPa SSW 14.3 mph /  23 km/h 22.5 mph /  36.2 km/h 70 % 0.0 in /  0 mm
11:21 9.4 °F /  -12.6 °C 4.2 °F /  -15.4 °C 1005.6 in /  34049.6 hPa SW 17.7 mph /  28.5 km/h 22.5 mph /  36.2 km/h 70 % 0.0 in /  0 mm
11:27 9.6 °F /  -12.4 °C 4.4 °F /  -15.3 °C 1006.0 in /  34063.2 hPa SW 19.5 mph /  31.4 km/h 20.9 mph /  33.6 km/h 70 % 0.0 in /  0 mm
11:33 9.6 °F /  -12.4 °C 4.4 °F /  -15.3 °C 1005.6 in /  34049.6 hPa SW 17.7 mph /  28.5 km/h 24.1 mph /  38.8 km/h 70 % 0.0 in /  0 mm
11:39 10.0 °F /  -12.2 °C 4.6 °F /  -15.2 °C 1005.6 in /  34049.6 hPa WSW 11.1 mph /  17.9 km/h 17.7 mph /  28.5 km/h 69 % 0.0 in /  0 mm
11:45 10.3 °F /  -12.1 °C 4.7 °F /  -15.2 °C 1006.0 in /  34063.2 hPa SW 11.1 mph /  17.9 km/h 17.7 mph /  28.5 km/h 68 % 0.0 in /  0 mm
11:51 10.6 °F /  -11.9 °C 4.7 °F /  -15.2 °C 1005.6 in /  34049.6 hPa SW 22.7 mph /  36.5 km/h 22.7 mph /  36.5 km/h 67 % 0.0 in /  0 mm
11:57 10.7 °F /  -11.8 °C 3.9 °F /  -15.6 °C 1005.6 in /  34049.6 hPa SW 13.0 mph /  20.9 km/h 30.6 mph /  49.2 km/h 63 % 0.0 in /  0 mm
12:03 10.7 °F /  -11.8 °C 3.7 °F /  -15.7 °C 1005.6 in /  34049.6 hPa SW 13.0 mph /  20.9 km/h 24.1 mph /  38.8 km/h 62 % 0.0 in /  0 mm
12:09 10.9 °F /  -11.7 °C 4.1 °F /  -15.5 °C 1005.6 in /  34049.6 hPa SW 22.7 mph /  36.5 km/h 24.1 mph /  38.8 km/h 63 % 0.0 in /  0 mm
12:15 10.9 °F /  -11.7 °C 4.4 °F /  -15.3 °C 1005.6 in /  34049.6 hPa SSW 16.3 mph /  26.2 km/h 25.7 mph /  41.4 km/h 64 % 0.0 in /  0 mm
12:21 10.9 °F /  -11.7 °C 4.4 °F /  -15.3 °C 1005.6 in /  34049.6 hPa SW 17.7 mph /  28.5 km/h 24.1 mph /  38.8 km/h 64 % 0.0 in /  0 mm
12:27 11.1 °F /  -11.6 °C 3.6 °F /  -15.8 °C 1005.6 in /  34049.6 hPa SW 19.5 mph /  31.4 km/h 24.1 mph /  38.8 km/h 60 % 0.0 in /  0 mm
12:33 11.4 °F /  -11.4 °C 4.1 °F /  -15.5 °C 1005.6 in /  34049.6 hPa WSW 20.9 mph /  33.6 km/h 20.9 mph /  33.6 km/h 61 % 0.0 in /  0 mm
12:39 11.7 °F /  -11.3 °C 4.0 °F /  -15.6 °C 1005.6 in /  34049.6 hPa WSW 16.3 mph /  26.2 km/h 27.4 mph /  44.1 km/h 59 % 0.0 in /  0 mm
12:45 11.8 °F /  -11.2 °C 5.2 °F /  -14.9 °C 1005.6 in /  34049.6 hPa SW 13.0 mph /  20.9 km/h 22.5 mph /  36.2 km/h 64 % 0.0 in /  0 mm
12:51 11.8 °F /  -11.2 °C 4.0 °F /  -15.6 °C 1005.3 in /  34039.5 hPa SW 13.0 mph /  20.9 km/h 19.3 mph /  31.1 km/h 59 % 0.0 in /  0 mm
12:57 11.9 °F /  -11.2 °C 3.6 °F /  -15.8 °C 1005.3 in /  34039.5 hPa SW 9.7 mph /  15.6 km/h 22.5 mph /  36.2 km/h 57 % 0.0 in /  0 mm
13:03 12.2 °F /  -11 °C 4.7 °F /  -15.2 °C 1005.3 in /  34039.5 hPa SSW 16.3 mph /  26.2 km/h 22.5 mph /  36.2 km/h 60 % 0.0 in /  0 mm
13:09 12.4 °F /  -10.9 °C 4.1 °F /  -15.5 °C 1005.3 in /  34039.5 hPa SSW 9.7 mph /  15.6 km/h 17.7 mph /  28.5 km/h 57 % 0.0 in /  0 mm
13:15 12.4 °F /  -10.9 °C 4.4 °F /  -15.3 °C 1005.0 in /  34029.3 hPa West 3.2 mph /  5.1 km/h 17.7 mph /  28.5 km/h 58 % 0.0 in /  0 mm
13:21 12.4 °F /  -10.9 °C 3.9 °F /  -15.6 °C 1005.0 in /  34029.3 hPa SW 20.9 mph /  33.6 km/h 20.9 mph /  33.6 km/h 56 % 0.0 in /  0 mm
13:27 12.3 °F /  -10.9 °C 3.5 °F /  -15.8 °C 1005.0 in /  34029.3 hPa SW 11.1 mph /  17.9 km/h 20.9 mph /  33.6 km/h 55 % 0.0 in /  0 mm
13:33 12.3 °F /  -10.9 °C 3.3 °F /  -15.9 °C 1005.0 in /  34029.3 hPa West 6.4 mph /  10.3 km/h 24.1 mph /  38.8 km/h 54 % 0.0 in /  0 mm
13:39 12.2 °F /  -11 °C 2.9 °F /  -16.2 °C 1005.0 in /  34029.3 hPa WSW 16.3 mph /  26.2 km/h 22.5 mph /  36.2 km/h 53 % 0.0 in /  0 mm
13:45 12.4 °F /  -10.9 °C 3.1 °F /  -16.1 °C 1004.6 in /  34015.8 hPa WSW 17.7 mph /  28.5 km/h 24.1 mph /  38.8 km/h 53 % 0.0 in /  0 mm
13:51 12.6 °F /  -10.8 °C 3.3 °F /  -15.9 °C 1004.6 in /  34015.8 hPa West 17.7 mph /  28.5 km/h 25.7 mph /  41.4 km/h 53 % 0.0 in /  0 mm
13:57 12.7 °F /  -10.7 °C 3.4 °F /  -15.9 °C 1004.6 in /  34015.8 hPa WSW 19.5 mph /  31.4 km/h 20.9 mph /  33.6 km/h 53 % 0.0 in /  0 mm
14:03 12.8 °F /  -10.7 °C 2.6 °F /  -16.3 °C 1004.6 in /  34015.8 hPa SW 19.5 mph /  31.4 km/h 35.4 mph /  57 km/h 50 % 0.0 in /  0 mm
14:09 12.8 °F /  -10.7 °C 4.2 °F /  -15.4 °C 1004.6 in /  34015.8 hPa SW 17.7 mph /  28.5 km/h 35.4 mph /  57 km/h 56 % 0.0 in /  0 mm
14:15 12.9 °F /  -10.6 °C 3.0 °F /  -16.1 °C 1004.6 in /  34015.8 hPa WSW 27.4 mph /  44.1 km/h 29.0 mph /  46.7 km/h 51 % 0.0 in /  0 mm
14:21 12.9 °F /  -10.6 °C 2.4 °F /  -16.4 °C 1004.6 in /  34015.8 hPa SSW 22.7 mph /  36.5 km/h 27.4 mph /  44.1 km/h 49 % 0.0 in /  0 mm
14:27 12.9 °F /  -10.6 °C 2.2 °F /  -16.6 °C 1004.6 in /  34015.8 hPa SW 16.3 mph /  26.2 km/h 37.0 mph /  59.5 km/h 48 % 0.0 in /  0 mm
14:33 12.9 °F /  -10.6 °C 2.7 °F /  -16.3 °C 1004.6 in /  34015.8 hPa West 20.9 mph /  33.6 km/h 33.8 mph /  54.4 km/h 50 % 0.0 in /  0 mm
14:39 13.1 °F /  -10.5 °C 2.9 °F /  -16.2 °C 1004.6 in /  34015.8 hPa WSW 16.3 mph /  26.2 km/h 25.7 mph /  41.4 km/h 50 % 0.0 in /  0 mm
14:45 13.1 °F /  -10.5 °C 2.3 °F /  -16.5 °C 1004.6 in /  34015.8 hPa SW 17.7 mph /  28.5 km/h 29.0 mph /  46.7 km/h 48 % 0.0 in /  0 mm
14:51 13.1 °F /  -10.5 °C 2.9 °F /  -16.2 °C 1004.6 in /  34015.8 hPa West 11.1 mph /  17.9 km/h 22.5 mph /  36.2 km/h 50 % 0.0 in /  0 mm
14:57 13.2 °F /  -10.4 °C 3.3 °F /  -15.9 °C 1004.6 in /  34015.8 hPa SSW 13.0 mph /  20.9 km/h 19.3 mph /  31.1 km/h 51 % 0.0 in /  0 mm
15:03 13.2 °F /  -10.4 °C 2.4 °F /  -16.4 °C 1004.6 in /  34015.8 hPa WSW 19.5 mph /  31.4 km/h 33.8 mph /  54.4 km/h 48 % 0.0 in /  0 mm
15:09 13.2 °F /  -10.4 °C 2.4 °F /  -16.4 °C 1004.6 in /  34015.8 hPa SW 27.4 mph /  44.1 km/h 30.6 mph /  49.2 km/h 48 % 0.0 in /  0 mm
15:15 13.2 °F /  -10.4 °C 2.7 °F /  -16.3 °C 1004.6 in /  34015.8 hPa SW 24.1 mph /  38.8 km/h 25.7 mph /  41.4 km/h 49 % 0.0 in /  0 mm
15:21 13.1 °F /  -10.5 °C 2.6 °F /  -16.3 °C 1004.6 in /  34015.8 hPa SSW 19.5 mph /  31.4 km/h 30.6 mph /  49.2 km/h 49 % 0.0 in /  0 mm
15:27 13.2 °F /  -10.4 °C 3.3 °F /  -15.9 °C 1004.6 in /  34015.8 hPa West 6.4 mph /  10.3 km/h 19.3 mph /  31.1 km/h 51 % 0.0 in /  0 mm
15:33 13.3 °F /  -10.4 °C 2.8 °F /  -16.2 °C 1004.6 in /  34015.8 hPa SW 14.3 mph /  23 km/h 25.7 mph /  41.4 km/h 49 % 0.0 in /  0 mm
15:39 13.3 °F /  -10.4 °C 2.8 °F /  -16.2 °C 1004.6 in /  34015.8 hPa WSW 14.3 mph /  23 km/h 27.4 mph /  44.1 km/h 49 % 0.0 in /  0 mm
15:45 13.3 °F /  -10.4 °C 2.5 °F /  -16.4 °C 1004.6 in /  34015.8 hPa WSW 14.3 mph /  23 km/h 25.7 mph /  41.4 km/h 48 % 0.0 in /  0 mm
15:51 13.3 °F /  -10.4 °C 2.8 °F /  -16.2 °C 1004.6 in /  34015.8 hPa WSW 11.1 mph /  17.9 km/h 20.9 mph /  33.6 km/h 49 % 0.0 in /  0 mm
15:57 13.3 °F /  -10.4 °C 2.5 °F /  -16.4 °C 1004.6 in /  34015.8 hPa West 13.0 mph /  20.9 km/h 24.1 mph /  38.8 km/h 48 % 0.0 in /  0 mm
16:03 13.2 °F /  -10.4 °C 2.4 °F /  -16.4 °C 1004.6 in /  34015.8 hPa WSW 19.5 mph /  31.4 km/h 24.1 mph /  38.8 km/h 48 % 0.0 in /  0 mm
16:09 13.1 °F /  -10.5 °C 2.3 °F /  -16.5 °C 1004.6 in /  34015.8 hPa WSW 20.9 mph /  33.6 km/h 24.1 mph /  38.8 km/h 48 % 0.0 in /  0 mm
16:15 13.1 °F /  -10.5 °C 2.9 °F /  -16.2 °C 1004.6 in /  34015.8 hPa WSW 14.3 mph /  23 km/h 19.3 mph /  31.1 km/h 50 % 0.0 in /  0 mm
16:21 13.0 °F /  -10.6 °C 2.8 °F /  -16.2 °C 1004.6 in /  34015.8 hPa WSW 11.1 mph /  17.9 km/h 17.7 mph /  28.5 km/h 50 % 0.0 in /  0 mm
16:27 13.1 °F /  -10.5 °C 2.9 °F /  -16.2 °C 1004.6 in /  34015.8 hPa SW 11.1 mph /  17.9 km/h 19.3 mph /  31.1 km/h 50 % 0.0 in /  0 mm
16:33 13.1 °F /  -10.5 °C 3.5 °F /  -15.8 °C 1004.6 in /  34015.8 hPa West 6.4 mph /  10.3 km/h 12.9 mph /  20.8 km/h 52 % 0.0 in /  0 mm
16:39 13.1 °F /  -10.5 °C 3.5 °F /  -15.8 °C 1004.6 in /  34015.8 hPa West 6.4 mph /  10.3 km/h 12.9 mph /  20.8 km/h 52 % 0.0 in /  0 mm
16:45 13.1 °F /  -10.5 °C 2.6 °F /  -16.3 °C 1004.6 in /  34015.8 hPa WSW 11.1 mph /  17.9 km/h 19.3 mph /  31.1 km/h 49 % 0.0 in /  0 mm
16:51 13.1 °F /  -10.5 °C 2.9 °F /  -16.2 °C 1004.6 in /  34015.8 hPa SW 14.3 mph /  23 km/h 14.5 mph /  23.3 km/h 50 % 0.0 in /  0 mm
16:57 13.1 °F /  -10.5 °C 2.9 °F /  -16.2 °C 1004.6 in /  34015.8 hPa WSW 6.4 mph /  10.3 km/h 17.7 mph /  28.5 km/h 50 % 0.0 in /  0 mm
17:03 13.1 °F /  -10.5 °C 2.9 °F /  -16.2 °C 1004.6 in /  34015.8 hPa West 3.2 mph /  5.1 km/h 14.5 mph /  23.3 km/h 50 % 0.0 in /  0 mm
17:09 12.9 °F /  -10.6 °C 3.0 °F /  -16.1 °C 1004.6 in /  34015.8 hPa WSW 13.0 mph /  20.9 km/h 14.5 mph /  23.3 km/h 51 % 0.0 in /  0 mm
17:15 13.1 °F /  -10.5 °C 2.9 °F /  -16.2 °C 1004.6 in /  34015.8 hPa SW 19.5 mph /  31.4 km/h 19.5 mph /  31.4 km/h 50 % 0.0 in /  0 mm
17:21 13.3 °F /  -10.4 °C 2.8 °F /  -16.2 °C 1005.0 in /  34029.3 hPa West 11.1 mph /  17.9 km/h 11.3 mph /  18.2 km/h 49 % 0.0 in /  0 mm
17:27 13.4 °F /  -10.3 °C 3.2 °F /  -16 °C 1005.0 in /  34029.3 hPa SW 3.2 mph /  5.1 km/h 12.9 mph /  20.8 km/h 50 % 0.0 in /  0 mm
17:33 13.4 °F /  -10.3 °C 2.9 °F /  -16.2 °C 1005.0 in /  34029.3 hPa WSW 7.9 mph /  12.7 km/h 14.5 mph /  23.3 km/h 49 % 0.0 in /  0 mm
17:39 13.1 °F /  -10.5 °C 2.9 °F /  -16.2 °C 1005.0 in /  34029.3 hPa SW 6.4 mph /  10.3 km/h 9.7 mph /  15.6 km/h 50 % 0.0 in /  0 mm
17:45 12.9 °F /  -10.6 °C 3.0 °F /  -16.1 °C 1005.0 in /  34029.3 hPa WSW 3.2 mph /  5.1 km/h 9.7 mph /  15.6 km/h 51 % 0.0 in /  0 mm
17:51 12.8 °F /  -10.7 °C 3.5 °F /  -15.8 °C 1005.0 in /  34029.3 hPa WSW 1.4 mph /  2.3 km/h 6.4 mph /  10.3 km/h 53 % 0.0 in /  0 mm
17:57 12.7 °F /  -10.7 °C 3.4 °F /  -15.9 °C 1005.0 in /  34029.3 hPa WSW 11.1 mph /  17.9 km/h 11.3 mph /  18.2 km/h 53 % 0.0 in /  0 mm
18:03 12.9 °F /  -10.6 °C 3.3 °F /  -15.9 °C 1005.0 in /  34029.3 hPa WSW 4.7 mph /  7.6 km/h 9.7 mph /  15.6 km/h 52 % 0.0 in /  0 mm
18:09 13.0 °F /  -10.6 °C 3.4 °F /  -15.9 °C 1005.3 in /  34039.5 hPa SW 6.4 mph /  10.3 km/h 9.7 mph /  15.6 km/h 52 % 0.0 in /  0 mm
18:15 13.0 °F /  -10.6 °C 3.1 °F /  -16.1 °C 1005.3 in /  34039.5 hPa WSW 9.7 mph /  15.6 km/h 12.9 mph /  20.8 km/h 51 % 0.0 in /  0 mm
18:21 12.8 °F /  -10.7 °C 3.2 °F /  -16 °C 1005.3 in /  34039.5 hPa WSW 7.9 mph /  12.7 km/h 12.9 mph /  20.8 km/h 52 % 0.0 in /  0 mm
18:27 12.6 °F /  -10.8 °C 3.3 °F /  -15.9 °C 1005.3 in /  34039.5 hPa WSW 4.7 mph /  7.6 km/h 11.3 mph /  18.2 km/h 53 % 0.0 in /  0 mm
18:33 12.4 °F /  -10.9 °C 3.1 °F /  -16.1 °C 1005.3 in /  34039.5 hPa SW 13.0 mph /  20.9 km/h 13.0 mph /  20.9 km/h 53 % 0.0 in /  0 mm
18:39 12.3 °F /  -10.9 °C 3.0 °F /  -16.1 °C 1005.6 in /  34049.6 hPa SW 6.4 mph /  10.3 km/h 9.7 mph /  15.6 km/h 53 % 0.0 in /  0 mm
18:45 12.1 °F /  -11.1 °C 3.1 °F /  -16.1 °C 1005.6 in /  34049.6 hPa SW 4.7 mph /  7.6 km/h 9.7 mph /  15.6 km/h 54 % 0.0 in /  0 mm
18:51 11.9 °F /  -11.2 °C 2.6 °F /  -16.3 °C 1005.6 in /  34049.6 hPa WSW 6.4 mph /  10.3 km/h 12.9 mph /  20.8 km/h 53 % 0.0 in /  0 mm
18:57 11.9 °F /  -11.2 °C 2.6 °F /  -16.3 °C 1005.6 in /  34049.6 hPa WSW 7.9 mph /  12.7 km/h 9.7 mph /  15.6 km/h 53 % 0.0 in /  0 mm
19:03 11.7 °F /  -11.3 °C 2.7 °F /  -16.3 °C 1005.6 in /  34049.6 hPa WSW 3.2 mph /  5.1 km/h 6.4 mph /  10.3 km/h 54 % 0.0 in /  0 mm
19:09 11.5 °F /  -11.4 °C 2.5 °F /  -16.4 °C 1006.0 in /  34063.2 hPa West 4.7 mph /  7.6 km/h 8.0 mph /  12.9 km/h 54 % 0.0 in /  0 mm
19:15 11.2 °F /  -11.6 °C 2.5 °F /  -16.4 °C 1006.0 in /  34063.2 hPa WSW 6.4 mph /  10.3 km/h 6.4 mph /  10.3 km/h 55 % 0.0 in /  0 mm
19:21 11.1 °F /  -11.6 °C 2.7 °F /  -16.3 °C 1006.0 in /  34063.2 hPa WSW 6.4 mph /  10.3 km/h 8.0 mph /  12.9 km/h 56 % 0.0 in /  0 mm
19:27 11.0 °F /  -11.7 °C 2.6 °F /  -16.3 °C 1006.3 in /  34073.3 hPa West 4.7 mph /  7.6 km/h 6.4 mph /  10.3 km/h 56 % 0.0 in /  0 mm
19:33 10.8 °F /  -11.8 °C 2.6 °F /  -16.3 °C 1006.3 in /  34073.3 hPa SW 1.4 mph /  2.3 km/h 4.8 mph /  7.7 km/h 57 % 0.0 in /  0 mm
19:39 10.6 °F /  -11.9 °C 2.7 °F /  -16.3 °C 1006.3 in /  34073.3 hPa Calm   3.2 mph /  5.1 km/h 58 % 0.0 in /  0 mm
19:45 10.3 °F /  -12.1 °C 2.6 °F /  -16.3 °C 1006.3 in /  34073.3 hPa Calm   1.6 mph /  2.6 km/h 59 % 0.0 in /  0 mm
19:51 10.1 °F /  -12.2 °C 2.7 °F /  -16.3 °C 1006.3 in /  34073.3 hPa West 1.4 mph /  2.3 km/h 1.6 mph /  2.6 km/h 60 % 0.0 in /  0 mm
19:58 9.9 °F /  -12.3 °C 2.5 °F /  -16.4 °C 1006.3 in /  34073.3 hPa West 1.4 mph /  2.3 km/h 1.6 mph /  2.6 km/h 60 % 0.0 in /  0 mm
20:04 9.9 °F /  -12.3 °C 2.7 °F /  -16.3 °C 1006.3 in /  34073.3 hPa Calm   4.8 mph /  7.7 km/h 61 % 0.0 in /  0 mm
20:10 9.3 °F /  -12.6 °C 3.1 °F /  -16.1 °C 1006.7 in /  34086.9 hPa SE 3.2 mph /  5.1 km/h 3.2 mph /  5.1 km/h 65 % 0.0 in /  0 mm
20:16 8.6 °F /  -13 °C 3.0 °F /  -16.1 °C 1006.7 in /  34086.9 hPa Calm   1.6 mph /  2.6 km/h 68 % 0.0 in /  0 mm
20:22 8.2 °F /  -13.2 °C 2.9 °F /  -16.2 °C 1006.7 in /  34086.9 hPa Calm   1.6 mph /  2.6 km/h 69 % 0.0 in /  0 mm
20:28 8.1 °F /  -13.3 °C 3.0 °F /  -16.1 °C 1006.7 in /  34086.9 hPa Calm     70 % 0.0 in /  0 mm
20:34 7.8 °F /  -13.4 °C 2.7 °F /  -16.3 °C 1006.7 in /  34086.9 hPa Calm     70 % 0.0 in /  0 mm
20:40 7.6 °F /  -13.6 °C 2.9 °F /  -16.2 °C 1006.7 in /  34086.9 hPa Calm     72 % 0.0 in /  0 mm
20:46 7.4 °F /  -13.7 °C 2.9 °F /  -16.2 °C 1007.0 in /  34097 hPa Calm     73 % 0.0 in /  0 mm
20:52 7.2 °F /  -13.8 °C 2.7 °F /  -16.3 °C 1007.0 in /  34097 hPa Calm     73 % 0.0 in /  0 mm
20:58 7.1 °F /  -13.8 °C 2.8 °F /  -16.2 °C 1007.0 in /  34097 hPa Calm     74 % 0.0 in /  0 mm
21:04 6.8 °F /  -14 °C 2.7 °F /  -16.3 °C 1007.0 in /  34097 hPa Calm     75 % 0.0 in /  0 mm
21:10 6.6 °F /  -14.1 °C 2.7 °F /  -16.3 °C 1007.0 in /  34097 hPa Calm   1.6 mph /  2.6 km/h 76 % 0.0 in /  0 mm
21:16 6.3 °F /  -14.3 °C 2.6 °F /  -16.3 °C 1007.0 in /  34097 hPa Calm   1.6 mph /  2.6 km/h 77 % 0.0 in /  0 mm
21:22 6.1 °F /  -14.4 °C 2.6 °F /  -16.3 °C 1007.3 in /  34107.2 hPa Calm     78 % 0.0 in /  0 mm
21:28 5.9 °F /  -14.5 °C 2.5 °F /  -16.4 °C 1007.3 in /  34107.2 hPa Calm     79 % 0.0 in /  0 mm
21:34 5.9 °F /  -14.5 °C 2.5 °F /  -16.4 °C 1007.3 in /  34107.2 hPa Calm     79 % 0.0 in /  0 mm
21:40 5.8 °F /  -14.6 °C 2.6 °F /  -16.3 °C 1007.3 in /  34107.2 hPa Calm     80 % 0.0 in /  0 mm
21:46 5.7 °F /  -14.6 °C 2.7 °F /  -16.3 °C 1007.3 in /  34107.2 hPa Calm     81 % 0.0 in /  0 mm
21:52 5.6 °F /  -14.7 °C 2.6 °F /  -16.3 °C 1007.3 in /  34107.2 hPa Calm     81 % 0.0 in /  0 mm
21:58 5.4 °F /  -14.8 °C 2.4 °F /  -16.4 °C 1007.3 in /  34107.2 hPa Calm     81 % 0.0 in /  0 mm
22:04 5.3 °F /  -14.8 °C 2.5 °F /  -16.4 °C 1007.3 in /  34107.2 hPa Calm     82 % 0.0 in /  0 mm
22:10 5.2 °F /  -14.9 °C 2.4 °F /  -16.4 °C 1007.3 in /  34107.2 hPa Calm   1.6 mph /  2.6 km/h 82 % 0.0 in /  0 mm
22:16 5.2 °F /  -14.9 °C 2.5 °F /  -16.4 °C 1007.3 in /  34107.2 hPa Calm     83 % 0.0 in /  0 mm
22:22 5.3 °F /  -14.8 °C 2.6 °F /  -16.3 °C 1007.3 in /  34107.2 hPa Calm     83 % 0.0 in /  0 mm
22:28 5.4 °F /  -14.8 °C 2.6 °F /  -16.3 °C 1007.7 in /  34120.7 hPa Calm     82 % 0.0 in /  0 mm
22:34 5.7 °F /  -14.6 °C 2.7 °F /  -16.3 °C 1007.7 in /  34120.7 hPa Calm     81 % 0.0 in /  0 mm
22:40 5.9 °F /  -14.5 °C 2.5 °F /  -16.4 °C 1007.7 in /  34120.7 hPa Calm     79 % 0.0 in /  0 mm
22:46 6.1 °F /  -14.4 °C 2.7 °F /  -16.3 °C 1007.7 in /  34120.7 hPa Calm     79 % 0.0 in /  0 mm
22:52 6.3 °F /  -14.3 °C 2.7 °F /  -16.3 °C 1007.7 in /  34120.7 hPa Calm     78 % 0.0 in /  0 mm
22:58 6.3 °F /  -14.3 °C 2.7 °F /  -16.3 °C 1008.0 in /  34130.9 hPa NNE 1.4 mph /  2.3 km/h 1.6 mph /  2.6 km/h 78 % 0.0 in /  0 mm
23:04 6.2 °F /  -14.3 °C 2.6 °F /  -16.3 °C 1007.7 in /  34120.7 hPa Calm   1.6 mph /  2.6 km/h 78 % 0.0 in /  0 mm
23:10 6.4 °F /  -14.2 °C 2.8 °F /  -16.2 °C 1008.0 in /  34130.9 hPa Calm     78 % 0.0 in /  0 mm
23:16 6.3 °F /  -14.3 °C 2.7 °F /  -16.3 °C 1008.0 in /  34130.9 hPa Calm     78 % 0.0 in /  0 mm
23:22 6.5 °F /  -14.2 °C 2.8 °F /  -16.2 °C 1008.0 in /  34130.9 hPa Calm   1.6 mph /  2.6 km/h 77 % 0.0 in /  0 mm
23:28 6.6 °F /  -14.1 °C 2.7 °F /  -16.3 °C 1008.0 in /  34130.9 hPa Calm     76 % 0.0 in /  0 mm
23:34 6.6 °F /  -14.1 °C 2.7 °F /  -16.3 °C 1008.0 in /  34130.9 hPa Calm     76 % 0.0 in /  0 mm
23:40 6.4 °F /  -14.2 °C 2.7 °F /  -16.3 °C 1008.0 in /  34130.9 hPa Calm     77 % 0.0 in /  0 mm
23:46 6.3 °F /  -14.3 °C 2.7 °F /  -16.3 °C 1008.0 in /  34130.9 hPa Calm     78 % 0.0 in /  0 mm
23:52 6.2 °F /  -14.3 °C 2.8 °F /  -16.2 °C 1008.0 in /  34130.9 hPa Calm     79 % 0.0 in /  0 mm
23:59 6.1 °F /  -14.4 °C 2.7 °F /  -16.3 °C 1008.0 in /  34130.9 hPa Calm     79 % 0.0 in /  0 mm
Meteo18
Compliments of Weather Underground - 4 mb

Script developed by  Jim McMurry - jmcmurry@mwt.net Adapted for the template by  Wim van der Kuil - Leuven-Template.eu

You find our weather info also at:

European Weather Network

Weather Underground

Equipment we use:

Weather-station
Davis Vue

Weather-program
Meteobridge

Weather-server
Raspberry PI 2 B+

Provider
1 and 1

Davis Vue

Meteobridge

Raspberry PI 2 B+

1 and 1